Flugplatz Kehl-Sundheim

Für EDSK sind keine METAR/TAF Berichte vorhanden.
Es werden die Flugwettermeldungen vom Flugplatz Lahr in 21 km Entfernung angezeigt.

Bericht für EDTL

vom 14.11. um 10:20 UTC

Wind 8 kt aus 200°

Sichtweite 10 km oder mehr

gute Sicht, keine Wolken < 5000 ft, keine CB, keine Wettererscheinungen (CAVOK)

Temperatur 6.0°C

Taupunkt 2.0°C

Luftfeuchtigkeit 75%

Luftdruck 1003 hPa

EDTL 141020Z 20008KT CAVOK 06/02 Q1003

Prognose für EDTL

vom 14.11. um 00:00 UTC

Zwischen 00:00 UTC und 00:00 UTC

Wind 4 kt aus 190°

Sichtweite 10 km oder mehr

keine signifikanten Wettererscheinungen

keine Wolken


Zwischen 00:00 und 00:00 UTC übergehend zu

Wind 6 kt aus 10°

Sichtweite 10 km oder mehr

keine signifikanten Wettererscheinungen

keine Wolken

TAF EDTL 140800Z 1409/1418 19004KT CAVOK BECMG 1413/1415 01006KT
Impressum